sensor_id;sensor_type;location;lat;lon;timestamp;temperature;humidity
76787;DHT22;65739;51.482;5.702;2023-08-12T00:00:16;21.00;99.90
76787;DHT22;65739;51.482;5.702;2023-08-12T00:02:43;21.00;99.90
76787;DHT22;65739;51.482;5.702;2023-08-12T00:05:09;21.00;99.90
76787;DHT22;65739;51.482;5.702;2023-08-12T00:07:38;20.90;99.90
76787;DHT22;65739;51.482;5.702;2023-08-12T00:10:04;20.90;99.90
76787;DHT22;65739;51.482;5.702;2023-08-12T00:12:37;21.00;99.90
76787;DHT22;65739;51.482;5.702;2023-08-12T00:15:04;20.90;99.90
76787;DHT22;65739;51.482;5.702;2023-08-12T00:17:32;20.90;99.90
76787;DHT22;65739;51.482;5.702;2023-08-12T00:19:58;20.90;99.90
76787;DHT22;65739;51.482;5.702;2023-08-12T00:22:24;21.00;99.90
76787;DHT22;65739;51.482;5.702;2023-08-12T00:24:49;21.00;99.90
76787;DHT22;65739;51.482;5.702;2023-08-12T00:27:15;20.90;99.90
76787;DHT22;65739;51.482;5.702;2023-08-12T00:29:40;20.90;99.90
76787;DHT22;65739;51.482;5.702;2023-08-12T00:32:07;20.90;99.90
76787;DHT22;65739;51.482;5.702;2023-08-12T00:34:33;20.90;99.90
76787;DHT22;65739;51.482;5.702;2023-08-12T00:36:59;20.90;99.90
76787;DHT22;65739;51.482;5.702;2023-08-12T00:39:24;20.80;99.90
76787;DHT22;65739;51.482;5.702;2023-08-12T00:41:50;20.80;99.90
76787;DHT22;65739;51.482;5.702;2023-08-12T00:44:15;20.80;99.90
76787;DHT22;65739;51.482;5.702;2023-08-12T00:46:42;20.80;99.90
76787;DHT22;65739;51.482;5.702;2023-08-12T00:49:08;20.70;99.90
76787;DHT22;65739;51.482;5.702;2023-08-12T00:51:35;20.80;99.90
76787;DHT22;65739;51.482;5.702;2023-08-12T00:54:04;20.80;99.90
76787;DHT22;65739;51.482;5.702;2023-08-12T00:56:31;20.80;99.90
76787;DHT22;65739;51.482;5.702;2023-08-12T00:58:58;20.80;99.90
76787;DHT22;65739;51.482;5.702;2023-08-12T01:01:24;20.80;99.90
76787;DHT22;65739;51.482;5.702;2023-08-12T01:03:51;20.80;99.90
76787;DHT22;65739;51.482;5.702;2023-08-12T01:06:17;20.90;99.90
76787;DHT22;65739;51.482;5.702;2023-08-12T01:08:42;20.80;99.90
76787;DHT22;65739;51.482;5.702;2023-08-12T01:11:16;20.80;99.90
76787;DHT22;65739;51.482;5.702;2023-08-12T01:13:58;20.80;99.90
76787;DHT22;65739;51.482;5.702;2023-08-12T01:16:29;20.80;99.90
76787;DHT22;65739;51.482;5.702;2023-08-12T01:18:55;20.70;99.90
76787;DHT22;65739;51.482;5.702;2023-08-12T01:21:24;20.60;99.90
76787;DHT22;65739;51.482;5.702;2023-08-12T01:23:52;20.60;99.90
76787;DHT22;65739;51.482;5.702;2023-08-12T01:26:17;20.60;99.90
76787;DHT22;65739;51.482;5.702;2023-08-12T01:28:43;20.60;99.90
76787;DHT22;65739;51.482;5.702;2023-08-12T01:31:18;20.60;99.90
76787;DHT22;65739;51.482;5.702;2023-08-12T01:36:58;20.90;99.90
76787;DHT22;65739;51.482;5.702;2023-08-12T01:39:26;20.90;99.90
76787;DHT22;65739;51.482;5.702;2023-08-12T01:41:52;20.80;99.90
76787;DHT22;65739;51.482;5.702;2023-08-12T01:44:19;20.80;99.90
76787;DHT22;65739;51.482;5.702;2023-08-12T01:46:44;20.70;99.90
76787;DHT22;65739;51.482;5.702;2023-08-12T01:49:10;20.70;99.90
76787;DHT22;65739;51.482;5.702;2023-08-12T01:51:35;20.70;99.90
76787;DHT22;65739;51.482;5.702;2023-08-12T01:54:01;20.70;99.90
76787;DHT22;65739;51.482;5.702;2023-08-12T01:56:26;20.70;99.90
76787;DHT22;65739;51.482;5.702;2023-08-12T01:58:52;20.80;99.90
76787;DHT22;65739;51.482;5.702;2023-08-12T02:01:17;20.90;99.90
76787;DHT22;65739;51.482;5.702;2023-08-12T02:03:43;20.80;99.90
76787;DHT22;65739;51.482;5.702;2023-08-12T02:06:08;20.70;99.90
76787;DHT22;65739;51.482;5.702;2023-08-12T02:08:34;20.70;99.90
76787;DHT22;65739;51.482;5.702;2023-08-12T02:10:59;20.60;99.90
76787;DHT22;65739;51.482;5.702;2023-08-12T02:13:25;20.60;99.90
76787;DHT22;65739;51.482;5.702;2023-08-12T02:15:51;20.60;99.90
76787;DHT22;65739;51.482;5.702;2023-08-12T02:18:16;20.70;99.90
76787;DHT22;65739;51.482;5.702;2023-08-12T02:20:42;20.70;99.90
76787;DHT22;65739;51.482;5.702;2023-08-12T02:23:07;20.60;99.90
76787;DHT22;65739;51.482;5.702;2023-08-12T02:25:33;20.60;99.90
76787;DHT22;65739;51.482;5.702;2023-08-12T02:27:58;20.70;99.90
76787;DHT22;65739;51.482;5.702;2023-08-12T02:30:24;20.70;99.90
76787;DHT22;65739;51.482;5.702;2023-08-12T02:32:49;20.70;99.90
76787;DHT22;65739;51.482;5.702;2023-08-12T02:35:17;20.60;99.90
76787;DHT22;65739;51.482;5.702;2023-08-12T02:37:43;20.60;99.90
76787;DHT22;65739;51.482;5.702;2023-08-12T02:40:09;20.60;99.90
76787;DHT22;65739;51.482;5.702;2023-08-12T02:42:36;20.60;99.90
76787;DHT22;65739;51.482;5.702;2023-08-12T02:45:01;20.50;99.90
76787;DHT22;65739;51.482;5.702;2023-08-12T02:47:28;20.50;99.90
76787;DHT22;65739;51.482;5.702;2023-08-12T02:49:53;20.50;99.90
76787;DHT22;65739;51.482;5.702;2023-08-12T02:52:19;20.50;99.90
76787;DHT22;65739;51.482;5.702;2023-08-12T02:54:44;20.50;99.90
76787;DHT22;65739;51.482;5.702;2023-08-12T02:57:10;20.50;99.90
76787;DHT22;65739;51.482;5.702;2023-08-12T02:59:35;20.40;99.90
76787;DHT22;65739;51.482;5.702;2023-08-12T03:02:01;20.40;99.90
76787;DHT22;65739;51.482;5.702;2023-08-12T03:04:28;20.40;99.90
76787;DHT22;65739;51.482;5.702;2023-08-12T03:06:54;20.50;99.90
76787;DHT22;65739;51.482;5.702;2023-08-12T03:09:20;20.40;99.90
76787;DHT22;65739;51.482;5.702;2023-08-12T03:11:45;20.50;99.90
76787;DHT22;65739;51.482;5.702;2023-08-12T03:14:11;20.30;99.90
76787;DHT22;65739;51.482;5.702;2023-08-12T03:16:37;20.40;99.90
76787;DHT22;65739;51.482;5.702;2023-08-12T03:19:02;20.40;99.90
76787;DHT22;65739;51.482;5.702;2023-08-12T03:21:28;20.40;99.90
76787;DHT22;65739;51.482;5.702;2023-08-12T03:23:54;20.40;99.90
76787;DHT22;65739;51.482;5.702;2023-08-12T03:26:19;20.50;99.90
76787;DHT22;65739;51.482;5.702;2023-08-12T03:28:45;20.50;99.90
76787;DHT22;65739;51.482;5.702;2023-08-12T03:31:10;20.50;99.90
76787;DHT22;65739;51.482;5.702;2023-08-12T03:33:36;20.50;99.90
76787;DHT22;65739;51.482;5.702;2023-08-12T03:36:01;20.50;99.90
76787;DHT22;65739;51.482;5.702;2023-08-12T03:38:27;20.50;99.90
76787;DHT22;65739;51.482;5.702;2023-08-12T03:40:52;20.60;99.90
76787;DHT22;65739;51.482;5.702;2023-08-12T03:43:18;20.70;99.90
76787;DHT22;65739;51.482;5.702;2023-08-12T03:45:44;20.60;99.90
76787;DHT22;65739;51.482;5.702;2023-08-12T03:48:10;20.60;99.90
76787;DHT22;65739;51.482;5.702;2023-08-12T03:50:37;20.50;99.90
76787;DHT22;65739;51.482;5.702;2023-08-12T03:53:03;20.60;99.90
76787;DHT22;65739;51.482;5.702;2023-08-12T03:55:33;20.50;99.90
76787;DHT22;65739;51.482;5.702;2023-08-12T03:57:59;20.50;99.90
76787;DHT22;65739;51.482;5.702;2023-08-12T04:00:25;20.50;99.90
76787;DHT22;65739;51.482;5.702;2023-08-12T04:02:50;20.40;99.90
76787;DHT22;65739;51.482;5.702;2023-08-12T04:05:16;20.50;99.90
76787;DHT22;65739;51.482;5.702;2023-08-12T04:07:42;20.50;99.90
76787;DHT22;65739;51.482;5.702;2023-08-12T04:10:08;20.50;99.90
76787;DHT22;65739;51.482;5.702;2023-08-12T04:12:33;20.50;99.90
76787;DHT22;65739;51.482;5.702;2023-08-12T04:14:59;20.50;99.90
76787;DHT22;65739;51.482;5.702;2023-08-12T04:17:27;20.50;99.90
76787;DHT22;65739;51.482;5.702;2023-08-12T04:19:53;20.50;99.90
76787;DHT22;65739;51.482;5.702;2023-08-12T04:22:18;20.40;99.90
76787;DHT22;65739;51.482;5.702;2023-08-12T04:24:44;20.40;99.90
76787;DHT22;65739;51.482;5.702;2023-08-12T04:27:09;20.30;99.90
76787;DHT22;65739;51.482;5.702;2023-08-12T04:29:39;20.40;99.90
76787;DHT22;65739;51.482;5.702;2023-08-12T04:32:05;20.30;99.90
76787;DHT22;65739;51.482;5.702;2023-08-12T04:34:31;20.30;99.90
76787;DHT22;65739;51.482;5.702;2023-08-12T04:36:56;20.20;99.90
76787;DHT22;65739;51.482;5.702;2023-08-12T04:39:24;20.10;99.90
76787;DHT22;65739;51.482;5.702;2023-08-12T04:41:52;20.10;99.90
76787;DHT22;65739;51.482;5.702;2023-08-12T04:44:18;20.10;99.90
76787;DHT22;65739;51.482;5.702;2023-08-12T04:46:43;20.00;99.90
76787;DHT22;65739;51.482;5.702;2023-08-12T04:49:09;20.00;99.90
76787;DHT22;65739;51.482;5.702;2023-08-12T04:51:34;20.00;99.90
76787;DHT22;65739;51.482;5.702;2023-08-12T04:54:00;20.00;99.90
76787;DHT22;65739;51.482;5.702;2023-08-12T04:56:27;20.00;99.90
76787;DHT22;65739;51.482;5.702;2023-08-12T04:58:54;19.90;99.90
76787;DHT22;65739;51.482;5.702;2023-08-12T05:01:20;19.90;99.90
76787;DHT22;65739;51.482;5.702;2023-08-12T05:03:45;19.90;99.90
76787;DHT22;65739;51.482;5.702;2023-08-12T05:06:11;19.90;99.90
76787;DHT22;65739;51.482;5.702;2023-08-12T05:08:36;19.70;99.90
76787;DHT22;65739;51.482;5.702;2023-08-12T05:11:02;19.70;99.90
76787;DHT22;65739;51.482;5.702;2023-08-12T05:13:30;19.60;99.90
76787;DHT22;65739;51.482;5.702;2023-08-12T05:15:56;19.70;99.90
76787;DHT22;65739;51.482;5.702;2023-08-12T05:18:22;19.60;99.90
76787;DHT22;65739;51.482;5.702;2023-08-12T05:20:52;19.60;99.90
76787;DHT22;65739;51.482;5.702;2023-08-12T05:23:20;19.50;99.90
76787;DHT22;65739;51.482;5.702;2023-08-12T05:25:46;19.50;99.90
76787;DHT22;65739;51.482;5.702;2023-08-12T05:28:11;19.50;99.90
76787;DHT22;65739;51.482;5.702;2023-08-12T05:30:37;19.50;99.90
76787;DHT22;65739;51.482;5.702;2023-08-12T05:33:04;19.50;99.90
76787;DHT22;65739;51.482;5.702;2023-08-12T05:35:33;19.50;99.90
76787;DHT22;65739;51.482;5.702;2023-08-12T05:37:59;19.50;99.90
76787;DHT22;65739;51.482;5.702;2023-08-12T05:40:24;19.40;99.90
76787;DHT22;65739;51.482;5.702;2023-08-12T05:42:50;19.40;99.90
76787;DHT22;65739;51.482;5.702;2023-08-12T05:45:16;19.40;99.90
76787;DHT22;65739;51.482;5.702;2023-08-12T05:47:41;19.40;99.90
76787;DHT22;65739;51.482;5.702;2023-08-12T05:50:07;19.30;99.90
76787;DHT22;65739;51.482;5.702;2023-08-12T05:52:33;19.30;99.90
76787;DHT22;65739;51.482;5.702;2023-08-12T05:54:58;19.30;99.90
76787;DHT22;65739;51.482;5.702;2023-08-12T05:57:24;19.30;99.90
76787;DHT22;65739;51.482;5.702;2023-08-12T05:59:49;19.30;99.90
76787;DHT22;65739;51.482;5.702;2023-08-12T06:02:15;19.40;99.90
76787;DHT22;65739;51.482;5.702;2023-08-12T06:04:40;19.30;99.90
76787;DHT22;65739;51.482;5.702;2023-08-12T06:07:06;19.40;99.90
76787;DHT22;65739;51.482;5.702;2023-08-12T06:09:32;19.40;99.90
76787;DHT22;65739;51.482;5.702;2023-08-12T06:11:57;19.30;99.90
76787;DHT22;65739;51.482;5.702;2023-08-12T06:14:23;19.30;99.90
76787;DHT22;65739;51.482;5.702;2023-08-12T06:16:48;19.30;99.90
76787;DHT22;65739;51.482;5.702;2023-08-12T06:19:14;19.30;99.90
76787;DHT22;65739;51.482;5.702;2023-08-12T06:21:39;19.40;99.90
76787;DHT22;65739;51.482;5.702;2023-08-12T06:24:05;19.40;99.90
76787;DHT22;65739;51.482;5.702;2023-08-12T06:26:30;19.40;99.90
76787;DHT22;65739;51.482;5.702;2023-08-12T06:28:56;19.40;99.90
76787;DHT22;65739;51.482;5.702;2023-08-12T06:31:21;19.50;99.90
76787;DHT22;65739;51.482;5.702;2023-08-12T06:33:47;19.50;99.90
76787;DHT22;65739;51.482;5.702;2023-08-12T06:36:13;19.60;99.90
76787;DHT22;65739;51.482;5.702;2023-08-12T06:38:38;19.50;99.90
76787;DHT22;65739;51.482;5.702;2023-08-12T06:41:04;19.50;99.90
76787;DHT22;65739;51.482;5.702;2023-08-12T06:43:29;19.60;99.90
76787;DHT22;65739;51.482;5.702;2023-08-12T06:45:55;19.60;99.90
76787;DHT22;65739;51.482;5.702;2023-08-12T06:48:20;19.70;99.90
76787;DHT22;65739;51.482;5.702;2023-08-12T06:50:46;19.70;99.90
76787;DHT22;65739;51.482;5.702;2023-08-12T06:53:17;19.70;99.90
76787;DHT22;65739;51.482;5.702;2023-08-12T06:55:46;19.70;99.90
76787;DHT22;65739;51.482;5.702;2023-08-12T06:58:15;19.80;99.90
76787;DHT22;65739;51.482;5.702;2023-08-12T07:00:41;19.90;99.90
76787;DHT22;65739;51.482;5.702;2023-08-12T07:03:07;20.10;99.90
76787;DHT22;65739;51.482;5.702;2023-08-12T07:05:32;20.10;99.90
76787;DHT22;65739;51.482;5.702;2023-08-12T07:07:58;20.10;99.90
76787;DHT22;65739;51.482;5.702;2023-08-12T07:10:24;20.00;99.90
76787;DHT22;65739;51.482;5.702;2023-08-12T07:12:49;20.00;99.90
76787;DHT22;65739;51.482;5.702;2023-08-12T07:15:15;20.00;99.90
76787;DHT22;65739;51.482;5.702;2023-08-12T07:17:40;20.00;99.90
76787;DHT22;65739;51.482;5.702;2023-08-12T07:20:06;20.10;99.90
76787;DHT22;65739;51.482;5.702;2023-08-12T07:22:33;20.00;99.90
76787;DHT22;65739;51.482;5.702;2023-08-12T07:24:58;20.00;99.90
76787;DHT22;65739;51.482;5.702;2023-08-12T07:27:26;20.10;99.90
76787;DHT22;65739;51.482;5.702;2023-08-12T07:29:52;20.10;99.90
76787;DHT22;65739;51.482;5.702;2023-08-12T07:32:17;20.20;99.90
76787;DHT22;65739;51.482;5.702;2023-08-12T07:34:44;20.10;99.90
76787;DHT22;65739;51.482;5.702;2023-08-12T07:37:09;20.30;99.90
76787;DHT22;65739;51.482;5.702;2023-08-12T07:39:35;20.20;99.90
76787;DHT22;65739;51.482;5.702;2023-08-12T07:42:01;20.20;99.90
76787;DHT22;65739;51.482;5.702;2023-08-12T07:44:26;20.20;99.90
76787;DHT22;65739;51.482;5.702;2023-08-12T07:46:52;20.20;99.90
76787;DHT22;65739;51.482;5.702;2023-08-12T07:49:17;20.20;99.90
76787;DHT22;65739;51.482;5.702;2023-08-12T07:51:43;20.30;99.90
76787;DHT22;65739;51.482;5.702;2023-08-12T07:54:08;20.30;99.90
76787;DHT22;65739;51.482;5.702;2023-08-12T07:56:34;20.30;99.90
76787;DHT22;65739;51.482;5.702;2023-08-12T07:58:59;20.30;99.90
76787;DHT22;65739;51.482;5.702;2023-08-12T08:01:25;20.30;99.90
76787;DHT22;65739;51.482;5.702;2023-08-12T08:03:50;20.30;99.90
76787;DHT22;65739;51.482;5.702;2023-08-12T08:06:16;20.40;99.90
76787;DHT22;65739;51.482;5.702;2023-08-12T08:08:45;20.40;99.90
76787;DHT22;65739;51.482;5.702;2023-08-12T08:11:10;20.50;99.90
76787;DHT22;65739;51.482;5.702;2023-08-12T08:13:36;20.40;99.90
76787;DHT22;65739;51.482;5.702;2023-08-12T08:16:02;20.50;99.90
76787;DHT22;65739;51.482;5.702;2023-08-12T08:18:27;20.60;99.90
76787;DHT22;65739;51.482;5.702;2023-08-12T08:20:53;20.60;99.90
76787;DHT22;65739;51.482;5.702;2023-08-12T08:23:19;20.70;99.90
76787;DHT22;65739;51.482;5.702;2023-08-12T08:25:44;20.70;99.90
76787;DHT22;65739;51.482;5.702;2023-08-12T08:28:10;20.80;99.90
76787;DHT22;65739;51.482;5.702;2023-08-12T08:30:36;20.90;99.90
76787;DHT22;65739;51.482;5.702;2023-08-12T08:33:05;20.80;99.90
76787;DHT22;65739;51.482;5.702;2023-08-12T08:35:30;20.80;99.90
76787;DHT22;65739;51.482;5.702;2023-08-12T08:37:56;20.60;99.90
76787;DHT22;65739;51.482;5.702;2023-08-12T08:40:22;20.60;99.90
76787;DHT22;65739;51.482;5.702;2023-08-12T08:42:51;20.60;99.90
76787;DHT22;65739;51.482;5.702;2023-08-12T08:45:22;20.50;99.90
76787;DHT22;65739;51.482;5.702;2023-08-12T08:47:50;20.50;99.90
76787;DHT22;65739;51.482;5.702;2023-08-12T08:50:16;20.50;99.90
76787;DHT22;65739;51.482;5.702;2023-08-12T08:52:42;20.60;99.90
76787;DHT22;65739;51.482;5.702;2023-08-12T08:55:09;20.60;99.90
76787;DHT22;65739;51.482;5.702;2023-08-12T08:57:37;20.50;99.90
76787;DHT22;65739;51.482;5.702;2023-08-12T09:00:03;20.70;99.90
76787;DHT22;65739;51.482;5.702;2023-08-12T09:02:33;20.90;99.90
76787;DHT22;65739;51.482;5.702;2023-08-12T09:04:58;21.30;99.90
76787;DHT22;65739;51.482;5.702;2023-08-12T09:07:24;21.60;99.90
76787;DHT22;65739;51.482;5.702;2023-08-12T09:09:52;21.90;99.90
76787;DHT22;65739;51.482;5.702;2023-08-12T09:12:18;21.90;99.90
76787;DHT22;65739;51.482;5.702;2023-08-12T09:14:45;22.10;99.90
76787;DHT22;65739;51.482;5.702;2023-08-12T09:17:10;22.00;99.90
76787;DHT22;65739;51.482;5.702;2023-08-12T09:19:36;21.90;99.90
76787;DHT22;65739;51.482;5.702;2023-08-12T09:22:05;21.90;99.90
76787;DHT22;65739;51.482;5.702;2023-08-12T09:24:32;22.00;99.90
76787;DHT22;65739;51.482;5.702;2023-08-12T09:26:58;22.20;99.90
76787;DHT22;65739;51.482;5.702;2023-08-12T09:29:33;22.20;99.90
76787;DHT22;65739;51.482;5.702;2023-08-12T09:32:09;22.20;99.90
76787;DHT22;65739;51.482;5.702;2023-08-12T09:34:34;22.20;99.90
76787;DHT22;65739;51.482;5.702;2023-08-12T09:37:01;22.10;99.90
76787;DHT22;65739;51.482;5.702;2023-08-12T09:39:28;21.90;99.90
76787;DHT22;65739;51.482;5.702;2023-08-12T09:41:55;21.80;99.90
76787;DHT22;65739;51.482;5.702;2023-08-12T09:44:21;21.70;99.90
76787;DHT22;65739;51.482;5.702;2023-08-12T09:46:48;21.60;99.90
76787;DHT22;65739;51.482;5.702;2023-08-12T09:49:22;21.70;99.90
76787;DHT22;65739;51.482;5.702;2023-08-12T09:51:48;21.70;99.90
76787;DHT22;65739;51.482;5.702;2023-08-12T09:54:13;21.80;99.90
76787;DHT22;65739;51.482;5.702;2023-08-12T09:56:40;22.00;99.90
76787;DHT22;65739;51.482;5.702;2023-08-12T09:59:06;22.50;99.90
76787;DHT22;65739;51.482;5.702;2023-08-12T10:01:33;22.80;99.90
76787;DHT22;65739;51.482;5.702;2023-08-12T10:03:59;23.30;99.90
76787;DHT22;65739;51.482;5.702;2023-08-12T10:06:28;23.50;99.90
76787;DHT22;65739;51.482;5.702;2023-08-12T10:08:54;23.30;99.90
76787;DHT22;65739;51.482;5.702;2023-08-12T10:11:20;23.20;99.90
76787;DHT22;65739;51.482;5.702;2023-08-12T10:13:47;23.00;99.90
76787;DHT22;65739;51.482;5.702;2023-08-12T10:16:20;23.00;99.90
76787;DHT22;65739;51.482;5.702;2023-08-12T10:19:20;22.70;99.90
76787;DHT22;65739;51.482;5.702;2023-08-12T10:21:54;22.30;99.90
76787;DHT22;65739;51.482;5.702;2023-08-12T10:24:22;22.00;99.90
76787;DHT22;65739;51.482;5.702;2023-08-12T10:26:50;21.90;99.90
76787;DHT22;65739;51.482;5.702;2023-08-12T10:29:16;21.80;99.90
76787;DHT22;65739;51.482;5.702;2023-08-12T10:31:42;21.80;99.90
76787;DHT22;65739;51.482;5.702;2023-08-12T10:34:20;21.60;99.90
76787;DHT22;65739;51.482;5.702;2023-08-12T10:36:46;21.70;99.90
76787;DHT22;65739;51.482;5.702;2023-08-12T10:39:13;21.90;99.90
76787;DHT22;65739;51.482;5.702;2023-08-12T10:41:39;22.10;99.90
76787;DHT22;65739;51.482;5.702;2023-08-12T10:44:15;22.10;99.90
76787;DHT22;65739;51.482;5.702;2023-08-12T10:46:50;22.30;99.90
76787;DHT22;65739;51.482;5.702;2023-08-12T10:49:18;22.50;99.90
76787;DHT22;65739;51.482;5.702;2023-08-12T10:51:45;22.60;99.90
76787;DHT22;65739;51.482;5.702;2023-08-12T10:54:30;22.80;99.90
76787;DHT22;65739;51.482;5.702;2023-08-12T11:02:30;22.60;99.90
76787;DHT22;65739;51.482;5.702;2023-08-12T11:04:57;22.80;99.90
76787;DHT22;65739;51.482;5.702;2023-08-12T11:10:04;22.80;99.90
76787;DHT22;65739;51.482;5.702;2023-08-12T11:12:33;22.80;99.90
76787;DHT22;65739;51.482;5.702;2023-08-12T11:15:00;22.70;99.90
76787;DHT22;65739;51.482;5.702;2023-08-12T11:17:37;22.50;99.90
76787;DHT22;65739;51.482;5.702;2023-08-12T11:20:08;22.50;99.90
76787;DHT22;65739;51.482;5.702;2023-08-12T11:22:42;22.70;99.90
76787;DHT22;65739;51.482;5.702;2023-08-12T11:25:10;22.90;99.90
76787;DHT22;65739;51.482;5.702;2023-08-12T11:27:47;22.90;99.90
76787;DHT22;65739;51.482;5.702;2023-08-12T11:30:14;23.10;99.90
76787;DHT22;65739;51.482;5.702;2023-08-12T11:32:44;23.20;99.90
76787;DHT22;65739;51.482;5.702;2023-08-12T11:35:11;23.20;99.90
76787;DHT22;65739;51.482;5.702;2023-08-12T11:37:39;23.10;99.90
76787;DHT22;65739;51.482;5.702;2023-08-12T11:40:06;22.90;99.90
76787;DHT22;65739;51.482;5.702;2023-08-12T11:42:38;22.80;99.90
76787;DHT22;65739;51.482;5.702;2023-08-12T11:45:04;22.80;99.90
76787;DHT22;65739;51.482;5.702;2023-08-12T11:47:30;22.90;99.90
76787;DHT22;65739;51.482;5.702;2023-08-12T11:49:56;22.90;99.90
76787;DHT22;65739;51.482;5.702;2023-08-12T11:52:22;22.90;99.90
76787;DHT22;65739;51.482;5.702;2023-08-12T11:54:51;23.10;99.90
76787;DHT22;65739;51.482;5.702;2023-08-12T11:57:18;23.10;99.90
76787;DHT22;65739;51.482;5.702;2023-08-12T11:59:44;23.20;99.90
76787;DHT22;65739;51.482;5.702;2023-08-12T12:02:10;22.90;99.90
76787;DHT22;65739;51.482;5.702;2023-08-12T12:04:36;23.10;99.90
76787;DHT22;65739;51.482;5.702;2023-08-12T12:07:02;23.20;99.90
76787;DHT22;65739;51.482;5.702;2023-08-12T12:09:32;23.10;99.90
76787;DHT22;65739;51.482;5.702;2023-08-12T12:11:58;23.00;99.90
76787;DHT22;65739;51.482;5.702;2023-08-12T12:14:25;23.00;99.90
76787;DHT22;65739;51.482;5.702;2023-08-12T12:16:51;23.40;99.90
76787;DHT22;65739;51.482;5.702;2023-08-12T12:19:21;23.80;99.90
76787;DHT22;65739;51.482;5.702;2023-08-12T12:21:51;23.80;99.90
76787;DHT22;65739;51.482;5.702;2023-08-12T12:24:20;23.70;99.90
76787;DHT22;65739;51.482;5.702;2023-08-12T12:26:46;23.50;99.90
76787;DHT22;65739;51.482;5.702;2023-08-12T12:29:12;23.50;99.90
76787;DHT22;65739;51.482;5.702;2023-08-12T12:31:40;23.50;99.90
76787;DHT22;65739;51.482;5.702;2023-08-12T12:34:06;23.70;99.90
76787;DHT22;65739;51.482;5.702;2023-08-12T12:36:36;24.10;99.90
76787;DHT22;65739;51.482;5.702;2023-08-12T12:39:06;24.50;99.90
76787;DHT22;65739;51.482;5.702;2023-08-12T12:41:31;24.90;99.90
76787;DHT22;65739;51.482;5.702;2023-08-12T12:43:59;24.90;99.90
76787;DHT22;65739;51.482;5.702;2023-08-12T12:46:25;24.90;99.90
76787;DHT22;65739;51.482;5.702;2023-08-12T12:48:50;24.90;99.90
76787;DHT22;65739;51.482;5.702;2023-08-12T12:51:16;24.90;99.90
76787;DHT22;65739;51.482;5.702;2023-08-12T12:53:41;24.80;99.90
76787;DHT22;65739;51.482;5.702;2023-08-12T12:56:07;24.80;99.90
76787;DHT22;65739;51.482;5.702;2023-08-12T12:58:34;25.10;99.90
76787;DHT22;65739;51.482;5.702;2023-08-12T13:01:00;25.20;99.90
76787;DHT22;65739;51.482;5.702;2023-08-12T13:03:26;25.20;99.90
76787;DHT22;65739;51.482;5.702;2023-08-12T13:05:52;25.30;99.90
76787;DHT22;65739;51.482;5.702;2023-08-12T13:08:18;25.70;99.90
76787;DHT22;65739;51.482;5.702;2023-08-12T13:10:44;25.70;99.90
76787;DHT22;65739;51.482;5.702;2023-08-12T13:13:09;25.80;99.90
76787;DHT22;65739;51.482;5.702;2023-08-12T13:15:35;25.40;99.90
76787;DHT22;65739;51.482;5.702;2023-08-12T13:18:01;25.30;99.90
76787;DHT22;65739;51.482;5.702;2023-08-12T13:20:27;25.10;99.90
76787;DHT22;65739;51.482;5.702;2023-08-12T13:22:52;25.10;99.90
76787;DHT22;65739;51.482;5.702;2023-08-12T13:25:18;25.30;99.90
76787;DHT22;65739;51.482;5.702;2023-08-12T13:27:43;25.50;99.90
76787;DHT22;65739;51.482;5.702;2023-08-12T13:30:09;25.90;99.90
76787;DHT22;65739;51.482;5.702;2023-08-12T13:32:37;26.10;99.90
76787;DHT22;65739;51.482;5.702;2023-08-12T13:35:03;25.50;99.90
76787;DHT22;65739;51.482;5.702;2023-08-12T13:37:29;25.70;99.90
76787;DHT22;65739;51.482;5.702;2023-08-12T13:39:54;25.50;99.90
76787;DHT22;65739;51.482;5.702;2023-08-12T13:42:20;24.70;99.90
76787;DHT22;65739;51.482;5.702;2023-08-12T13:44:45;24.30;99.90
76787;DHT22;65739;51.482;5.702;2023-08-12T13:47:11;24.60;99.90
76787;DHT22;65739;51.482;5.702;2023-08-12T13:49:37;25.50;99.90
76787;DHT22;65739;51.482;5.702;2023-08-12T13:52:02;26.00;99.90
76787;DHT22;65739;51.482;5.702;2023-08-12T13:54:28;26.70;99.90
76787;DHT22;65739;51.482;5.702;2023-08-12T13:56:53;26.10;99.90
76787;DHT22;65739;51.482;5.702;2023-08-12T13:59:20;25.60;99.90
76787;DHT22;65739;51.482;5.702;2023-08-12T14:01:45;25.20;99.90
76787;DHT22;65739;51.482;5.702;2023-08-12T14:04:11;25.20;99.90
76787;DHT22;65739;51.482;5.702;2023-08-12T14:06:37;25.30;99.90
76787;DHT22;65739;51.482;5.702;2023-08-12T14:09:02;25.00;99.90
76787;DHT22;65739;51.482;5.702;2023-08-12T14:11:28;25.00;99.90
76787;DHT22;65739;51.482;5.702;2023-08-12T14:13:53;25.60;99.90
76787;DHT22;65739;51.482;5.702;2023-08-12T14:16:19;25.60;99.90
76787;DHT22;65739;51.482;5.702;2023-08-12T14:18:45;25.50;99.90
76787;DHT22;65739;51.482;5.702;2023-08-12T14:21:10;25.30;99.90
76787;DHT22;65739;51.482;5.702;2023-08-12T14:23:36;25.30;99.90
76787;DHT22;65739;51.482;5.702;2023-08-12T14:26:02;25.10;99.90
76787;DHT22;65739;51.482;5.702;2023-08-12T14:28:27;24.90;99.90
76787;DHT22;65739;51.482;5.702;2023-08-12T14:30:54;24.70;99.90
76787;DHT22;65739;51.482;5.702;2023-08-12T14:33:19;24.50;99.90
76787;DHT22;65739;51.482;5.702;2023-08-12T14:35:45;24.70;99.90
76787;DHT22;65739;51.482;5.702;2023-08-12T14:38:10;24.70;99.90
76787;DHT22;65739;51.482;5.702;2023-08-12T14:40:38;24.40;99.90
76787;DHT22;65739;51.482;5.702;2023-08-12T14:43:03;24.20;99.90
76787;DHT22;65739;51.482;5.702;2023-08-12T14:45:29;24.10;99.90
76787;DHT22;65739;51.482;5.702;2023-08-12T14:47:54;23.90;99.90
76787;DHT22;65739;51.482;5.702;2023-08-12T14:50:20;24.00;99.90
76787;DHT22;65739;51.482;5.702;2023-08-12T14:52:45;24.20;99.90
76787;DHT22;65739;51.482;5.702;2023-08-12T14:55:11;24.70;99.90
76787;DHT22;65739;51.482;5.702;2023-08-12T14:57:37;24.90;99.90
76787;DHT22;65739;51.482;5.702;2023-08-12T15:00:03;25.20;99.90
76787;DHT22;65739;51.482;5.702;2023-08-12T15:02:28;25.60;99.90
76787;DHT22;65739;51.482;5.702;2023-08-12T15:04:54;25.80;99.90
76787;DHT22;65739;51.482;5.702;2023-08-12T15:07:20;25.90;99.90
76787;DHT22;65739;51.482;5.702;2023-08-12T15:09:47;26.30;99.90
76787;DHT22;65739;51.482;5.702;2023-08-12T15:12:12;26.50;99.90
76787;DHT22;65739;51.482;5.702;2023-08-12T15:14:38;26.40;99.90
76787;DHT22;65739;51.482;5.702;2023-08-12T15:17:04;26.50;99.90
76787;DHT22;65739;51.482;5.702;2023-08-12T15:19:29;26.60;99.90
76787;DHT22;65739;51.482;5.702;2023-08-12T15:21:55;26.60;99.90
76787;DHT22;65739;51.482;5.702;2023-08-12T15:24:20;26.80;99.90
76787;DHT22;65739;51.482;5.702;2023-08-12T15:26:46;26.90;99.90
76787;DHT22;65739;51.482;5.702;2023-08-12T15:29:12;27.00;99.90
76787;DHT22;65739;51.482;5.702;2023-08-12T15:31:37;26.70;99.90
76787;DHT22;65739;51.482;5.702;2023-08-12T15:34:03;26.50;99.90
76787;DHT22;65739;51.482;5.702;2023-08-12T15:36:29;26.30;99.90